sensor_id;sensor_type;location;lat;lon;timestamp;temperature;humidity
2931;DHT22;1475;51.454;7.150;2022-07-21T00:01:16;19.60;99.90
2931;DHT22;1475;51.454;7.150;2022-07-21T00:03:43;19.60;99.90
2931;DHT22;1475;51.454;7.150;2022-07-21T00:06:10;19.50;99.90
2931;DHT22;1475;51.454;7.150;2022-07-21T00:08:38;19.50;99.90
2931;DHT22;1475;51.454;7.150;2022-07-21T00:11:05;19.50;99.90
2931;DHT22;1475;51.454;7.150;2022-07-21T00:13:32;19.50;99.90
2931;DHT22;1475;51.454;7.150;2022-07-21T00:15:59;19.30;99.90
2931;DHT22;1475;51.454;7.150;2022-07-21T00:18:26;19.20;99.90
2931;DHT22;1475;51.454;7.150;2022-07-21T00:20:55;19.20;99.90
2931;DHT22;1475;51.454;7.150;2022-07-21T00:23:23;19.10;99.90
2931;DHT22;1475;51.454;7.150;2022-07-21T00:25:51;19.00;99.90
2931;DHT22;1475;51.454;7.150;2022-07-21T00:28:19;18.90;99.90
2931;DHT22;1475;51.454;7.150;2022-07-21T00:30:46;18.90;99.90
2931;DHT22;1475;51.454;7.150;2022-07-21T00:33:13;18.90;99.90
2931;DHT22;1475;51.454;7.150;2022-07-21T00:35:40;18.90;99.90
2931;DHT22;1475;51.454;7.150;2022-07-21T00:38:07;18.90;99.90
2931;DHT22;1475;51.454;7.150;2022-07-21T00:40:34;18.90;99.90
2931;DHT22;1475;51.454;7.150;2022-07-21T00:43:02;18.90;99.90
2931;DHT22;1475;51.454;7.150;2022-07-21T00:45:29;18.90;99.90
2931;DHT22;1475;51.454;7.150;2022-07-21T00:47:56;18.90;99.90
2931;DHT22;1475;51.454;7.150;2022-07-21T00:50:23;18.90;99.90
2931;DHT22;1475;51.454;7.150;2022-07-21T00:52:51;18.90;99.90
2931;DHT22;1475;51.454;7.150;2022-07-21T00:55:20;18.90;99.90
2931;DHT22;1475;51.454;7.150;2022-07-21T00:57:48;18.90;99.90
2931;DHT22;1475;51.454;7.150;2022-07-21T01:00:19;18.90;99.90
2931;DHT22;1475;51.454;7.150;2022-07-21T01:02:46;18.90;99.90
2931;DHT22;1475;51.454;7.150;2022-07-21T01:05:14;19.00;99.90
2931;DHT22;1475;51.454;7.150;2022-07-21T01:07:43;19.00;99.90
2931;DHT22;1475;51.454;7.150;2022-07-21T01:10:11;19.00;99.90
2931;DHT22;1475;51.454;7.150;2022-07-21T01:12:39;19.10;99.90
2931;DHT22;1475;51.454;7.150;2022-07-21T01:15:07;19.00;99.90
2931;DHT22;1475;51.454;7.150;2022-07-21T01:17:37;19.00;99.90
2931;DHT22;1475;51.454;7.150;2022-07-21T01:20:07;19.00;99.90
2931;DHT22;1475;51.454;7.150;2022-07-21T01:22:38;19.00;99.90
2931;DHT22;1475;51.454;7.150;2022-07-21T01:25:06;19.00;99.90
2931;DHT22;1475;51.454;7.150;2022-07-21T01:27:33;19.00;99.90
2931;DHT22;1475;51.454;7.150;2022-07-21T01:30:01;19.10;99.90
2931;DHT22;1475;51.454;7.150;2022-07-21T01:32:28;19.00;99.90
2931;DHT22;1475;51.454;7.150;2022-07-21T01:34:55;19.00;99.90
2931;DHT22;1475;51.454;7.150;2022-07-21T01:37:23;19.00;99.90
2931;DHT22;1475;51.454;7.150;2022-07-21T01:39:55;18.90;99.90
2931;DHT22;1475;51.454;7.150;2022-07-21T01:42:39;18.90;99.90
2931;DHT22;1475;51.454;7.150;2022-07-21T01:45:07;18.90;99.90
2931;DHT22;1475;51.454;7.150;2022-07-21T01:47:34;18.90;99.90
2931;DHT22;1475;51.454;7.150;2022-07-21T01:50:02;18.90;99.90
2931;DHT22;1475;51.454;7.150;2022-07-21T01:52:29;18.90;99.90
2931;DHT22;1475;51.454;7.150;2022-07-21T01:54:57;18.90;99.90
2931;DHT22;1475;51.454;7.150;2022-07-21T01:57:24;18.90;99.90
2931;DHT22;1475;51.454;7.150;2022-07-21T01:59:51;18.80;99.90
2931;DHT22;1475;51.454;7.150;2022-07-21T02:02:17;18.80;99.90
2931;DHT22;1475;51.454;7.150;2022-07-21T02:04:46;18.60;99.90
2931;DHT22;1475;51.454;7.150;2022-07-21T02:07:13;18.60;99.90
2931;DHT22;1475;51.454;7.150;2022-07-21T02:09:40;18.40;99.90
2931;DHT22;1475;51.454;7.150;2022-07-21T02:12:09;18.40;99.90
2931;DHT22;1475;51.454;7.150;2022-07-21T02:14:36;18.40;99.90
2931;DHT22;1475;51.454;7.150;2022-07-21T02:17:03;18.40;99.90
2931;DHT22;1475;51.454;7.150;2022-07-21T02:19:30;18.40;99.90
2931;DHT22;1475;51.454;7.150;2022-07-21T02:21:57;18.40;99.90
2931;DHT22;1475;51.454;7.150;2022-07-21T02:24:24;18.30;99.90
2931;DHT22;1475;51.454;7.150;2022-07-21T02:26:51;18.20;99.90
2931;DHT22;1475;51.454;7.150;2022-07-21T02:29:20;18.10;99.90
2931;DHT22;1475;51.454;7.150;2022-07-21T02:31:47;18.10;99.90
2931;DHT22;1475;51.454;7.150;2022-07-21T02:34:13;18.10;99.90
2931;DHT22;1475;51.454;7.150;2022-07-21T02:36:40;18.10;99.90
2931;DHT22;1475;51.454;7.150;2022-07-21T02:39:07;18.20;99.90
2931;DHT22;1475;51.454;7.150;2022-07-21T02:41:34;18.10;99.90
2931;DHT22;1475;51.454;7.150;2022-07-21T02:44:01;18.10;99.90
2931;DHT22;1475;51.454;7.150;2022-07-21T02:46:30;18.10;99.90
2931;DHT22;1475;51.454;7.150;2022-07-21T02:48:57;18.10;99.90
2931;DHT22;1475;51.454;7.150;2022-07-21T02:51:23;18.10;99.90
2931;DHT22;1475;51.454;7.150;2022-07-21T02:53:50;18.00;99.90
2931;DHT22;1475;51.454;7.150;2022-07-21T02:56:17;18.00;99.90
2931;DHT22;1475;51.454;7.150;2022-07-21T02:58:44;18.00;99.90
2931;DHT22;1475;51.454;7.150;2022-07-21T03:01:11;18.00;99.90
2931;DHT22;1475;51.454;7.150;2022-07-21T03:03:40;18.00;99.90
2931;DHT22;1475;51.454;7.150;2022-07-21T03:06:07;18.00;99.90
2931;DHT22;1475;51.454;7.150;2022-07-21T03:08:34;18.00;99.90
2931;DHT22;1475;51.454;7.150;2022-07-21T03:11:00;18.00;99.90
2931;DHT22;1475;51.454;7.150;2022-07-21T03:13:28;17.90;99.90
2931;DHT22;1475;51.454;7.150;2022-07-21T03:15:55;18.00;99.90
2931;DHT22;1475;51.454;7.150;2022-07-21T03:18:22;17.90;99.90
2931;DHT22;1475;51.454;7.150;2022-07-21T03:20:51;17.90;99.90
2931;DHT22;1475;51.454;7.150;2022-07-21T03:23:18;18.00;99.90
2931;DHT22;1475;51.454;7.150;2022-07-21T03:25:44;17.90;99.90
2931;DHT22;1475;51.454;7.150;2022-07-21T03:28:11;18.00;99.90
2931;DHT22;1475;51.454;7.150;2022-07-21T03:30:38;18.00;99.90
2931;DHT22;1475;51.454;7.150;2022-07-21T03:33:05;18.00;99.90
2931;DHT22;1475;51.454;7.150;2022-07-21T03:35:33;18.00;99.90
2931;DHT22;1475;51.454;7.150;2022-07-21T03:38:03;18.10;99.90
2931;DHT22;1475;51.454;7.150;2022-07-21T03:40:32;18.10;99.90
2931;DHT22;1475;51.454;7.150;2022-07-21T03:43:01;18.10;99.90
2931;DHT22;1475;51.454;7.150;2022-07-21T03:45:29;18.10;99.90
2931;DHT22;1475;51.454;7.150;2022-07-21T03:47:56;18.00;99.90
2931;DHT22;1475;51.454;7.150;2022-07-21T03:50:23;18.00;99.90
2931;DHT22;1475;51.454;7.150;2022-07-21T03:52:50;18.00;99.90
2931;DHT22;1475;51.454;7.150;2022-07-21T03:55:18;18.10;99.90
2931;DHT22;1475;51.454;7.150;2022-07-21T03:57:48;18.00;99.90
2931;DHT22;1475;51.454;7.150;2022-07-21T04:00:21;18.00;99.90
2931;DHT22;1475;51.454;7.150;2022-07-21T04:02:48;17.90;99.90
2931;DHT22;1475;51.454;7.150;2022-07-21T04:05:16;17.90;99.90
2931;DHT22;1475;51.454;7.150;2022-07-21T04:07:44;17.90;99.90
2931;DHT22;1475;51.454;7.150;2022-07-21T04:10:14;17.90;99.90
2931;DHT22;1475;51.454;7.150;2022-07-21T04:12:43;17.90;99.90
2931;DHT22;1475;51.454;7.150;2022-07-21T04:15:11;18.00;99.90
2931;DHT22;1475;51.454;7.150;2022-07-21T04:17:39;18.00;99.90
2931;DHT22;1475;51.454;7.150;2022-07-21T04:20:07;18.00;99.90
2931;DHT22;1475;51.454;7.150;2022-07-21T04:22:35;18.10;99.90
2931;DHT22;1475;51.454;7.150;2022-07-21T04:25:02;18.10;99.90
2931;DHT22;1475;51.454;7.150;2022-07-21T04:27:29;18.00;99.90
2931;DHT22;1475;51.454;7.150;2022-07-21T04:29:58;18.10;99.90
2931;DHT22;1475;51.454;7.150;2022-07-21T04:32:25;18.10;99.90
2931;DHT22;1475;51.454;7.150;2022-07-21T04:34:51;18.10;99.90
2931;DHT22;1475;51.454;7.150;2022-07-21T04:37:18;18.20;99.90
2931;DHT22;1475;51.454;7.150;2022-07-21T04:39:48;18.20;99.90
2931;DHT22;1475;51.454;7.150;2022-07-21T04:42:15;18.20;99.90
2931;DHT22;1475;51.454;7.150;2022-07-21T04:44:42;18.20;99.90
2931;DHT22;1475;51.454;7.150;2022-07-21T04:47:12;18.20;99.90
2931;DHT22;1475;51.454;7.150;2022-07-21T04:49:39;18.20;99.90
2931;DHT22;1475;51.454;7.150;2022-07-21T04:52:06;18.30;99.90
2931;DHT22;1475;51.454;7.150;2022-07-21T04:54:33;18.30;99.90
2931;DHT22;1475;51.454;7.150;2022-07-21T04:57:00;18.40;99.90
2931;DHT22;1475;51.454;7.150;2022-07-21T04:59:28;18.40;99.90
2931;DHT22;1475;51.454;7.150;2022-07-21T05:01:54;18.50;99.90
2931;DHT22;1475;51.454;7.150;2022-07-21T05:04:23;18.50;99.90
2931;DHT22;1475;51.454;7.150;2022-07-21T05:06:50;18.50;99.90
2931;DHT22;1475;51.454;7.150;2022-07-21T05:09:16;18.50;99.90
2931;DHT22;1475;51.454;7.150;2022-07-21T05:11:43;18.50;99.90
2931;DHT22;1475;51.454;7.150;2022-07-21T05:14:11;18.50;99.90
2931;DHT22;1475;51.454;7.150;2022-07-21T05:16:38;18.50;99.90
2931;DHT22;1475;51.454;7.150;2022-07-21T05:19:05;18.60;99.90
2931;DHT22;1475;51.454;7.150;2022-07-21T05:21:34;18.70;99.90
2931;DHT22;1475;51.454;7.150;2022-07-21T05:24:00;18.80;99.90
2931;DHT22;1475;51.454;7.150;2022-07-21T05:26:27;18.90;99.90
2931;DHT22;1475;51.454;7.150;2022-07-21T05:28:54;19.00;99.90
2931;DHT22;1475;51.454;7.150;2022-07-21T05:31:20;19.00;99.90
2931;DHT22;1475;51.454;7.150;2022-07-21T05:33:47;19.10;99.90
2931;DHT22;1475;51.454;7.150;2022-07-21T05:36:14;19.10;99.90
2931;DHT22;1475;51.454;7.150;2022-07-21T05:38:42;19.10;99.90
2931;DHT22;1475;51.454;7.150;2022-07-21T05:41:09;19.20;99.90
2931;DHT22;1475;51.454;7.150;2022-07-21T05:43:36;19.20;99.90
2931;DHT22;1475;51.454;7.150;2022-07-21T05:46:03;19.20;99.90
2931;DHT22;1475;51.454;7.150;2022-07-21T05:48:30;19.30;99.90
2931;DHT22;1475;51.454;7.150;2022-07-21T05:50:57;19.20;99.90
2931;DHT22;1475;51.454;7.150;2022-07-21T05:53:24;19.30;99.90
2931;DHT22;1475;51.454;7.150;2022-07-21T05:55:52;19.40;99.90
2931;DHT22;1475;51.454;7.150;2022-07-21T05:58:19;19.40;99.90
2931;DHT22;1475;51.454;7.150;2022-07-21T06:00:49;19.40;99.90
2931;DHT22;1475;51.454;7.150;2022-07-21T06:03:33;19.40;99.90
2931;DHT22;1475;51.454;7.150;2022-07-21T06:06:00;19.50;99.90
2931;DHT22;1475;51.454;7.150;2022-07-21T06:08:27;19.50;99.90
2931;DHT22;1475;51.454;7.150;2022-07-21T06:10:55;19.60;99.90
2931;DHT22;1475;51.454;7.150;2022-07-21T06:13:22;19.70;99.90
2931;DHT22;1475;51.454;7.150;2022-07-21T06:15:49;19.90;99.90
2931;DHT22;1475;51.454;7.150;2022-07-21T06:18:16;20.00;99.90
2931;DHT22;1475;51.454;7.150;2022-07-21T06:20:43;20.10;99.90
2931;DHT22;1475;51.454;7.150;2022-07-21T06:23:09;20.10;99.90
2931;DHT22;1475;51.454;7.150;2022-07-21T06:25:36;20.10;99.90
2931;DHT22;1475;51.454;7.150;2022-07-21T06:28:05;20.10;99.90
2931;DHT22;1475;51.454;7.150;2022-07-21T06:30:32;20.10;99.90
2931;DHT22;1475;51.454;7.150;2022-07-21T06:32:59;20.20;99.90
2931;DHT22;1475;51.454;7.150;2022-07-21T06:35:26;20.30;99.90
2931;DHT22;1475;51.454;7.150;2022-07-21T06:37:52;20.40;99.90
2931;DHT22;1475;51.454;7.150;2022-07-21T06:40:20;20.40;99.90
2931;DHT22;1475;51.454;7.150;2022-07-21T06:42:47;20.50;99.90
2931;DHT22;1475;51.454;7.150;2022-07-21T06:45:15;20.40;99.90
2931;DHT22;1475;51.454;7.150;2022-07-21T06:47:42;20.50;99.90
2931;DHT22;1475;51.454;7.150;2022-07-21T06:50:09;20.40;99.90
2931;DHT22;1475;51.454;7.150;2022-07-21T06:52:37;20.50;99.90
2931;DHT22;1475;51.454;7.150;2022-07-21T06:55:05;20.50;99.90
2931;DHT22;1475;51.454;7.150;2022-07-21T06:57:33;20.60;99.90
2931;DHT22;1475;51.454;7.150;2022-07-21T07:00:00;20.60;99.90
2931;DHT22;1475;51.454;7.150;2022-07-21T07:02:28;20.60;99.90
2931;DHT22;1475;51.454;7.150;2022-07-21T07:04:55;20.70;99.90
2931;DHT22;1475;51.454;7.150;2022-07-21T07:07:22;20.70;99.90
2931;DHT22;1475;51.454;7.150;2022-07-21T07:09:49;20.60;99.90
2931;DHT22;1475;51.454;7.150;2022-07-21T07:12:15;20.70;99.90
2931;DHT22;1475;51.454;7.150;2022-07-21T07:14:42;20.80;99.90
2931;DHT22;1475;51.454;7.150;2022-07-21T07:17:09;20.80;99.90
2931;DHT22;1475;51.454;7.150;2022-07-21T07:19:37;20.90;99.90
2931;DHT22;1475;51.454;7.150;2022-07-21T07:22:04;21.00;99.90
2931;DHT22;1475;51.454;7.150;2022-07-21T07:24:31;21.10;99.90
2931;DHT22;1475;51.454;7.150;2022-07-21T07:26:58;21.30;99.90
2931;DHT22;1475;51.454;7.150;2022-07-21T07:29:24;21.50;99.90
2931;DHT22;1475;51.454;7.150;2022-07-21T07:31:53;21.70;99.90
2931;DHT22;1475;51.454;7.150;2022-07-21T07:34:20;22.00;99.90
2931;DHT22;1475;51.454;7.150;2022-07-21T07:36:49;22.10;99.90
2931;DHT22;1475;51.454;7.150;2022-07-21T07:39:15;22.10;99.90
2931;DHT22;1475;51.454;7.150;2022-07-21T07:41:43;22.20;99.90
2931;DHT22;1475;51.454;7.150;2022-07-21T07:44:10;22.30;99.90
2931;DHT22;1475;51.454;7.150;2022-07-21T07:46:37;22.40;99.90
2931;DHT22;1475;51.454;7.150;2022-07-21T07:49:04;22.60;99.90
2931;DHT22;1475;51.454;7.150;2022-07-21T07:51:31;22.70;99.90
2931;DHT22;1475;51.454;7.150;2022-07-21T07:53:59;22.70;99.90
2931;DHT22;1475;51.454;7.150;2022-07-21T07:56:29;22.90;99.90
2931;DHT22;1475;51.454;7.150;2022-07-21T07:58:56;23.10;99.90
2931;DHT22;1475;51.454;7.150;2022-07-21T08:01:22;23.20;99.90
2931;DHT22;1475;51.454;7.150;2022-07-21T08:03:49;23.30;99.90
2931;DHT22;1475;51.454;7.150;2022-07-21T08:06:16;23.20;99.90
2931;DHT22;1475;51.454;7.150;2022-07-21T08:08:43;23.10;99.90
2931;DHT22;1475;51.454;7.150;2022-07-21T08:11:13;22.90;99.90
2931;DHT22;1475;51.454;7.150;2022-07-21T08:13:41;22.80;99.90
2931;DHT22;1475;51.454;7.150;2022-07-21T08:16:08;22.90;99.90
2931;DHT22;1475;51.454;7.150;2022-07-21T08:18:35;23.10;99.90
2931;DHT22;1475;51.454;7.150;2022-07-21T08:21:01;23.40;99.90
2931;DHT22;1475;51.454;7.150;2022-07-21T08:23:28;23.40;99.90
2931;DHT22;1475;51.454;7.150;2022-07-21T08:25:55;23.40;99.90
2931;DHT22;1475;51.454;7.150;2022-07-21T08:28:23;23.40;99.90
2931;DHT22;1475;51.454;7.150;2022-07-21T08:30:50;23.50;99.90
2931;DHT22;1475;51.454;7.150;2022-07-21T08:33:17;23.50;99.90
2931;DHT22;1475;51.454;7.150;2022-07-21T08:35:44;23.50;99.90
2931;DHT22;1475;51.454;7.150;2022-07-21T08:38:11;23.80;99.90
2931;DHT22;1475;51.454;7.150;2022-07-21T08:40:40;23.80;99.90
2931;DHT22;1475;51.454;7.150;2022-07-21T08:43:08;23.80;99.90
2931;DHT22;1475;51.454;7.150;2022-07-21T08:45:37;24.00;99.90
2931;DHT22;1475;51.454;7.150;2022-07-21T08:48:04;24.00;99.90
2931;DHT22;1475;51.454;7.150;2022-07-21T08:50:38;24.10;99.90
2931;DHT22;1475;51.454;7.150;2022-07-21T08:53:05;24.20;99.90
2931;DHT22;1475;51.454;7.150;2022-07-21T08:55:33;24.00;99.90
2931;DHT22;1475;51.454;7.150;2022-07-21T08:58:02;24.00;99.90
2931;DHT22;1475;51.454;7.150;2022-07-21T09:00:29;24.00;99.90
2931;DHT22;1475;51.454;7.150;2022-07-21T09:03:15;24.00;99.90
2931;DHT22;1475;51.454;7.150;2022-07-21T09:05:58;23.70;99.90
2931;DHT22;1475;51.454;7.150;2022-07-21T09:08:29;23.70;99.90
2931;DHT22;1475;51.454;7.150;2022-07-21T09:11:10;23.60;99.90
2931;DHT22;1475;51.454;7.150;2022-07-21T09:13:38;23.80;99.90
2931;DHT22;1475;51.454;7.150;2022-07-21T09:16:05;24.10;99.90
2931;DHT22;1475;51.454;7.150;2022-07-21T09:18:47;24.40;99.90
2931;DHT22;1475;51.454;7.150;2022-07-21T09:21:15;24.60;99.90
2931;DHT22;1475;51.454;7.150;2022-07-21T09:23:42;24.60;99.90
2931;DHT22;1475;51.454;7.150;2022-07-21T09:26:09;24.70;99.90
2931;DHT22;1475;51.454;7.150;2022-07-21T09:28:37;24.90;99.90
2931;DHT22;1475;51.454;7.150;2022-07-21T09:31:18;24.90;99.90
2931;DHT22;1475;51.454;7.150;2022-07-21T09:33:48;24.60;99.90
2931;DHT22;1475;51.454;7.150;2022-07-21T09:36:16;24.60;99.90
2931;DHT22;1475;51.454;7.150;2022-07-21T09:38:50;24.70;99.90
2931;DHT22;1475;51.454;7.150;2022-07-21T09:41:21;24.50;99.90
2931;DHT22;1475;51.454;7.150;2022-07-21T09:43:50;24.60;99.90
2931;DHT22;1475;51.454;7.150;2022-07-21T09:46:18;24.60;99.90
2931;DHT22;1475;51.454;7.150;2022-07-21T09:48:49;24.50;99.90
2931;DHT22;1475;51.454;7.150;2022-07-21T09:51:22;24.50;99.90
2931;DHT22;1475;51.454;7.150;2022-07-21T09:57:11;24.90;99.90
2931;DHT22;1475;51.454;7.150;2022-07-21T09:59:40;24.80;99.90
2931;DHT22;1475;51.454;7.150;2022-07-21T10:02:13;24.80;99.90
2931;DHT22;1475;51.454;7.150;2022-07-21T10:04:43;24.60;99.90
2931;DHT22;1475;51.454;7.150;2022-07-21T10:07:15;24.60;99.90
2931;DHT22;1475;51.454;7.150;2022-07-21T10:09:44;24.60;99.90
2931;DHT22;1475;51.454;7.150;2022-07-21T10:12:14;24.80;99.90
2931;DHT22;1475;51.454;7.150;2022-07-21T10:14:41;24.70;99.90
2931;DHT22;1475;51.454;7.150;2022-07-21T10:17:08;24.70;99.90
2931;DHT22;1475;51.454;7.150;2022-07-21T10:19:45;24.60;99.90
2931;DHT22;1475;51.454;7.150;2022-07-21T10:22:23;24.50;99.90
2931;DHT22;1475;51.454;7.150;2022-07-21T10:24:52;24.40;99.90
2931;DHT22;1475;51.454;7.150;2022-07-21T10:27:19;24.40;99.90
2931;DHT22;1475;51.454;7.150;2022-07-21T10:29:57;24.50;99.90
2931;DHT22;1475;51.454;7.150;2022-07-21T10:32:29;24.70;99.90
2931;DHT22;1475;51.454;7.150;2022-07-21T10:34:59;24.60;99.90
2931;DHT22;1475;51.454;7.150;2022-07-21T10:37:47;24.60;99.90
2931;DHT22;1475;51.454;7.150;2022-07-21T10:40:41;24.50;99.90
2931;DHT22;1475;51.454;7.150;2022-07-21T10:43:37;24.30;99.90
2931;DHT22;1475;51.454;7.150;2022-07-21T10:46:35;24.10;99.90
2931;DHT22;1475;51.454;7.150;2022-07-21T10:49:03;24.10;99.90
2931;DHT22;1475;51.454;7.150;2022-07-21T10:51:34;24.10;99.90
2931;DHT22;1475;51.454;7.150;2022-07-21T10:54:24;24.00;99.90
2931;DHT22;1475;51.454;7.150;2022-07-21T11:00:17;23.20;99.90
2931;DHT22;1475;51.454;7.150;2022-07-21T11:02:47;22.50;99.90
2931;DHT22;1475;51.454;7.150;2022-07-21T11:05:15;21.90;99.90
2931;DHT22;1475;51.454;7.150;2022-07-21T11:08:15;21.50;99.90
2931;DHT22;1475;51.454;7.150;2022-07-21T11:10:45;21.20;99.90
2931;DHT22;1475;51.454;7.150;2022-07-21T11:13:13;21.00;99.90
2931;DHT22;1475;51.454;7.150;2022-07-21T11:15:53;20.90;99.90
2931;DHT22;1475;51.454;7.150;2022-07-21T11:18:21;20.80;99.90
2931;DHT22;1475;51.454;7.150;2022-07-21T11:21:11;21.30;99.90
2931;DHT22;1475;51.454;7.150;2022-07-21T11:23:42;20.80;99.90
2931;DHT22;1475;51.454;7.150;2022-07-21T11:26:11;20.80;99.90
2931;DHT22;1475;51.454;7.150;2022-07-21T11:28:39;20.70;99.90
2931;DHT22;1475;51.454;7.150;2022-07-21T11:31:17;20.70;99.90
2931;DHT22;1475;51.454;7.150;2022-07-21T11:33:47;20.60;99.90
2931;DHT22;1475;51.454;7.150;2022-07-21T11:36:26;20.60;99.90
2931;DHT22;1475;51.454;7.150;2022-07-21T11:38:59;20.70;99.90
2931;DHT22;1475;51.454;7.150;2022-07-21T11:41:27;21.00;99.90
2931;DHT22;1475;51.454;7.150;2022-07-21T11:43:54;20.70;99.90
2931;DHT22;1475;51.454;7.150;2022-07-21T11:46:21;20.70;99.90
2931;DHT22;1475;51.454;7.150;2022-07-21T11:48:48;20.60;99.90
2931;DHT22;1475;51.454;7.150;2022-07-21T11:51:15;20.50;99.90
2931;DHT22;1475;51.454;7.150;2022-07-21T11:53:45;20.40;99.90
2931;DHT22;1475;51.454;7.150;2022-07-21T11:56:18;20.10;99.90
2931;DHT22;1475;51.454;7.150;2022-07-21T11:59:08;20.20;99.90
2931;DHT22;1475;51.454;7.150;2022-07-21T12:06:53;20.10;99.90
2931;DHT22;1475;51.454;7.150;2022-07-21T12:09:53;19.90;99.90
2931;DHT22;1475;51.454;7.150;2022-07-21T12:12:40;19.80;99.90
2931;DHT22;1475;51.454;7.150;2022-07-21T12:15:14;20.20;99.90
2931;DHT22;1475;51.454;7.150;2022-07-21T12:17:44;19.60;99.90
2931;DHT22;1475;51.454;7.150;2022-07-21T12:20:26;19.40;99.90
2931;DHT22;1475;51.454;7.150;2022-07-21T12:22:57;19.60;99.90
2931;DHT22;1475;51.454;7.150;2022-07-21T12:25:35;19.70;99.90
2931;DHT22;1475;51.454;7.150;2022-07-21T12:28:06;20.40;99.90
2931;DHT22;1475;51.454;7.150;2022-07-21T12:30:36;20.00;99.90
2931;DHT22;1475;51.454;7.150;2022-07-21T12:33:07;20.50;99.90
2931;DHT22;1475;51.454;7.150;2022-07-21T12:40:47;20.50;99.90
2931;DHT22;1475;51.454;7.150;2022-07-21T12:53:48;20.40;99.90
2931;DHT22;1475;51.454;7.150;2022-07-21T12:56:18;20.40;99.90
2931;DHT22;1475;51.454;7.150;2022-07-21T13:04:05;20.40;99.90
2931;DHT22;1475;51.454;7.150;2022-07-21T13:45:16;19.60;99.90
2931;DHT22;1475;51.454;7.150;2022-07-21T13:47:48;19.80;99.90
2931;DHT22;1475;51.454;7.150;2022-07-21T13:50:15;19.80;99.90
2931;DHT22;1475;51.454;7.150;2022-07-21T13:52:42;19.10;99.90
2931;DHT22;1475;51.454;7.150;2022-07-21T13:55:09;20.10;99.90
2931;DHT22;1475;51.454;7.150;2022-07-21T13:57:38;19.10;99.90
2931;DHT22;1475;51.454;7.150;2022-07-21T14:00:10;19.10;99.90
2931;DHT22;1475;51.454;7.150;2022-07-21T14:02:44;19.20;99.90
2931;DHT22;1475;51.454;7.150;2022-07-21T14:05:25;19.20;99.90
2931;DHT22;1475;51.454;7.150;2022-07-21T14:07:53;19.10;99.90
2931;DHT22;1475;51.454;7.150;2022-07-21T14:10:20;18.90;99.90
2931;DHT22;1475;51.454;7.150;2022-07-21T14:12:49;18.50;99.90
2931;DHT22;1475;51.454;7.150;2022-07-21T14:15:19;18.70;99.90
2931;DHT22;1475;51.454;7.150;2022-07-21T14:17:48;17.60;99.90
2931;DHT22;1475;51.454;7.150;2022-07-21T14:20:15;19.20;99.90
2931;DHT22;1475;51.454;7.150;2022-07-21T14:22:56;19.70;99.90
2931;DHT22;1475;51.454;7.150;2022-07-21T14:28:12;18.40;99.90
2931;DHT22;1475;51.454;7.150;2022-07-21T14:30:40;18.80;99.90
2931;DHT22;1475;51.454;7.150;2022-07-21T14:33:08;18.50;99.90
2931;DHT22;1475;51.454;7.150;2022-07-21T14:35:36;20.70;99.90
2931;DHT22;1475;51.454;7.150;2022-07-21T14:38:06;18.20;99.90
2931;DHT22;1475;51.454;7.150;2022-07-21T14:40:33;18.80;99.90
2931;DHT22;1475;51.454;7.150;2022-07-21T14:43:10;18.80;99.90
2931;DHT22;1475;51.454;7.150;2022-07-21T14:45:37;18.90;99.90
2931;DHT22;1475;51.454;7.150;2022-07-21T14:50:43;18.80;99.90
2931;DHT22;1475;51.454;7.150;2022-07-21T14:53:24;18.80;99.90
2931;DHT22;1475;51.454;7.150;2022-07-21T14:55:50;19.50;99.90
2931;DHT22;1475;51.454;7.150;2022-07-21T14:58:19;19.90;99.90
2931;DHT22;1475;51.454;7.150;2022-07-21T15:00:46;18.80;99.90
2931;DHT22;1475;51.454;7.150;2022-07-21T15:03:13;18.80;99.90
2931;DHT22;1475;51.454;7.150;2022-07-21T15:05:42;19.30;99.90
2931;DHT22;1475;51.454;7.150;2022-07-21T15:08:09;19.50;99.90
2931;DHT22;1475;51.454;7.150;2022-07-21T15:10:37;19.70;99.90
2931;DHT22;1475;51.454;7.150;2022-07-21T15:15:44;18.80;99.90
2931;DHT22;1475;51.454;7.150;2022-07-21T15:26:16;19.00;99.90
2931;DHT22;1475;51.454;7.150;2022-07-21T15:28:57;19.00;99.90
2931;DHT22;1475;51.454;7.150;2022-07-21T15:31:25;18.20;99.90
2931;DHT22;1475;51.454;7.150;2022-07-21T15:33:52;19.00;99.90
2931;DHT22;1475;51.454;7.150;2022-07-21T15:36:19;19.60;99.90
2931;DHT22;1475;51.454;7.150;2022-07-21T15:38:46;18.80;99.90
2931;DHT22;1475;51.454;7.150;2022-07-21T15:41:14;18.80;99.90
2931;DHT22;1475;51.454;7.150;2022-07-21T15:43:41;18.80;99.90
2931;DHT22;1475;51.454;7.150;2022-07-21T15:46:08;18.70;99.90
2931;DHT22;1475;51.454;7.150;2022-07-21T15:48:36;18.90;99.90
2931;DHT22;1475;51.454;7.150;2022-07-21T15:51:03;18.60;99.90
2931;DHT22;1475;51.454;7.150;2022-07-21T15:53:30;19.40;99.90
2931;DHT22;1475;51.454;7.150;2022-07-21T15:55:57;18.70;99.90
2931;DHT22;1475;51.454;7.150;2022-07-21T15:58:25;18.70;99.90
2931;DHT22;1475;51.454;7.150;2022-07-21T16:00:52;18.70;99.90
2931;DHT22;1475;51.454;7.150;2022-07-21T16:03:19;18.70;99.90
2931;DHT22;1475;51.454;7.150;2022-07-21T16:05:46;18.60;99.90
2931;DHT22;1475;51.454;7.150;2022-07-21T16:08:13;18.60;99.90
2931;DHT22;1475;51.454;7.150;2022-07-21T16:10:40;18.60;99.90
2931;DHT22;1475;51.454;7.150;2022-07-21T16:13:07;18.60;99.90
2931;DHT22;1475;51.454;7.150;2022-07-21T16:15:36;18.60;99.90
2931;DHT22;1475;51.454;7.150;2022-07-21T16:18:03;18.60;99.90
2931;DHT22;1475;51.454;7.150;2022-07-21T16:20:30;18.70;99.90
2931;DHT22;1475;51.454;7.150;2022-07-21T16:22:57;18.60;99.90
2931;DHT22;1475;51.454;7.150;2022-07-21T16:25:23;18.70;99.90
2931;DHT22;1475;51.454;7.150;2022-07-21T16:27:51;18.60;99.90
2931;DHT22;1475;51.454;7.150;2022-07-21T16:30:18;18.50;99.90
2931;DHT22;1475;51.454;7.150;2022-07-21T16:32:47;18.50;99.90
2931;DHT22;1475;51.454;7.150;2022-07-21T16:35:14;18.50;99.90
2931;DHT22;1475;51.454;7.150;2022-07-21T16:37:42;18.50;99.90
2931;DHT22;1475;51.454;7.150;2022-07-21T16:40:10;18.50;99.90
2931;DHT22;1475;51.454;7.150;2022-07-21T16:42:37;18.40;99.90
2931;DHT22;1475;51.454;7.150;2022-07-21T16:45:06;18.40;99.90
2931;DHT22;1475;51.454;7.150;2022-07-21T16:47:33;18.40;99.90
2931;DHT22;1475;51.454;7.150;2022-07-21T16:50:02;18.40;99.90
2931;DHT22;1475;51.454;7.150;2022-07-21T16:52:33;18.50;99.90
2931;DHT22;1475;51.454;7.150;2022-07-21T16:55:00;18.50;99.90
2931;DHT22;1475;51.454;7.150;2022-07-21T16:57:27;18.50;99.90
2931;DHT22;1475;51.454;7.150;2022-07-21T16:59:54;18.50;99.90
2931;DHT22;1475;51.454;7.150;2022-07-21T17:02:21;18.60;99.90
2931;DHT22;1475;51.454;7.150;2022-07-21T17:04:48;18.60;99.90
2931;DHT22;1475;51.454;7.150;2022-07-21T17:07:17;18.70;99.90
2931;DHT22;1475;51.454;7.150;2022-07-21T17:09:44;18.60;99.90
2931;DHT22;1475;51.454;7.150;2022-07-21T17:12:14;18.50;99.90
2931;DHT22;1475;51.454;7.150;2022-07-21T17:14:46;18.50;99.90
2931;DHT22;1475;51.454;7.150;2022-07-21T17:17:13;18.40;99.90
2931;DHT22;1475;51.454;7.150;2022-07-21T17:19:40;18.40;99.90
2931;DHT22;1475;51.454;7.150;2022-07-21T17:22:07;18.30;99.90
2931;DHT22;1475;51.454;7.150;2022-07-21T17:24:36;18.20;99.90
2931;DHT22;1475;51.454;7.150;2022-07-21T17:27:03;18.20;99.90
2931;DHT22;1475;51.454;7.150;2022-07-21T17:29:30;18.20;99.90
2931;DHT22;1475;51.454;7.150;2022-07-21T17:31:57;18.20;99.90
2931;DHT22;1475;51.454;7.150;2022-07-21T17:34:24;18.10;99.90
2931;DHT22;1475;51.454;7.150;2022-07-21T17:36:51;18.20;99.90
2931;DHT22;1475;51.454;7.150;2022-07-21T17:39:17;18.10;99.90
2931;DHT22;1475;51.454;7.150;2022-07-21T17:41:46;18.10;99.90